createdAt,value
2022-12-05T00:01:38.938Z,18.00
2022-12-05T00:04:08.596Z,17.92
2022-12-05T00:06:36.718Z,18.60
2022-12-05T00:09:04.976Z,17.88
2022-12-05T00:11:34.315Z,16.40
2022-12-05T00:14:03.544Z,14.20
2022-12-05T00:16:34.912Z,14.73
2022-12-05T00:19:03.242Z,17.45
2022-12-05T00:21:32.795Z,15.13
2022-12-05T00:24:00.679Z,17.80
2022-12-05T00:26:27.892Z,20.15
2022-12-05T00:28:54.881Z,18.98
2022-12-05T00:31:24.037Z,21.27
2022-12-05T00:33:51.911Z,19.15
2022-12-05T00:36:26.029Z,18.05
2022-12-05T00:38:53.502Z,16.70
2022-12-05T00:41:26.076Z,18.20
2022-12-05T00:43:54.080Z,17.27
2022-12-05T00:46:23.459Z,16.65
2022-12-05T00:48:52.256Z,14.48
2022-12-05T00:51:28.419Z,14.18
2022-12-05T00:53:58.195Z,12.43
2022-12-05T00:56:26.204Z,13.02
2022-12-05T00:58:56.105Z,14.88
2022-12-05T01:01:32.739Z,13.57
2022-12-05T01:04:02.120Z,15.40
2022-12-05T01:06:29.065Z,16.75
2022-12-05T01:08:57.363Z,16.00
2022-12-05T01:11:25.813Z,17.63
2022-12-05T01:13:53.490Z,19.20
2022-12-05T01:16:24.759Z,16.60
2022-12-05T01:18:52.265Z,17.38
2022-12-05T01:21:20.328Z,19.25
2022-12-05T01:23:47.316Z,18.02
2022-12-05T01:26:16.235Z,17.63
2022-12-05T01:28:43.620Z,19.60
2022-12-05T01:31:22.188Z,20.23
2022-12-05T01:33:49.232Z,18.40
2022-12-05T01:36:16.051Z,20.67
2022-12-05T01:38:43.509Z,19.73
2022-12-05T01:41:15.012Z,20.08
2022-12-05T01:44:00.454Z,22.33
2022-12-05T01:46:29.689Z,17.67
2022-12-05T01:49:04.191Z,19.40
2022-12-05T01:51:33.937Z,19.75
2022-12-05T01:54:02.163Z,17.42
2022-12-05T01:56:29.152Z,14.45
2022-12-05T01:58:57.447Z,16.77
2022-12-05T02:01:24.169Z,17.80
2022-12-05T02:03:54.534Z,17.25
2022-12-05T02:06:22.774Z,17.02
2022-12-05T02:08:49.912Z,17.92
2022-12-05T02:11:16.776Z,15.93
2022-12-05T02:13:59.592Z,18.30
2022-12-05T02:16:50.283Z,18.92
2022-12-05T02:19:41.366Z,20.08
2022-12-05T02:22:08.067Z,21.05
2022-12-05T02:24:43.809Z,18.50
2022-12-05T02:27:39.514Z,21.80
2022-12-05T02:30:10.471Z,21.73
2022-12-05T02:32:49.419Z,22.90
2022-12-05T02:35:37.415Z,22.75
2022-12-05T02:38:28.780Z,20.70
2022-12-05T02:41:36.520Z,23.95
2022-12-05T02:44:17.498Z,20.45
2022-12-05T02:46:47.219Z,18.50
2022-12-05T02:49:20.924Z,16.92
2022-12-05T02:51:52.991Z,15.85
2022-12-05T02:54:41.412Z,19.98
2022-12-05T02:57:10.851Z,19.75
2022-12-05T02:59:40.747Z,18.60
2022-12-05T03:02:24.484Z,24.95
2022-12-05T03:04:51.311Z,26.52
2022-12-05T03:07:22.384Z,24.38
2022-12-05T03:09:59.591Z,24.75
2022-12-05T03:12:31.117Z,24.58
2022-12-05T03:15:10.916Z,21.55
2022-12-05T03:18:04.587Z,21.48
2022-12-05T03:20:39.614Z,22.52
2022-12-05T03:23:21.057Z,21.23
2022-12-05T03:26:03.347Z,20.38
2022-12-05T03:28:38.711Z,22.35
2022-12-05T03:31:11.426Z,22.17
2022-12-05T03:33:44.784Z,24.80
2022-12-05T03:36:29.889Z,21.27
2022-12-05T03:39:22.943Z,18.60
2022-12-05T03:42:00.594Z,16.70
2022-12-05T03:44:38.191Z,18.30
2022-12-05T03:47:20.959Z,17.88
2022-12-05T03:49:54.062Z,16.50
2022-12-05T03:56:19.935Z,11.00
2022-12-05T03:58:59.662Z,11.90
2022-12-05T04:01:30.007Z,11.85
2022-12-05T04:04:02.614Z,12.02
2022-12-05T04:06:33.567Z,11.65
2022-12-05T04:09:06.027Z,13.00
2022-12-05T04:11:36.619Z,14.15
2022-12-05T17:18:46.922Z,5.18
2022-12-05T17:21:16.983Z,12.25
2022-12-05T17:23:48.135Z,9.43
2022-12-05T17:26:21.441Z,13.20
2022-12-05T17:28:49.274Z,11.10
2022-12-05T17:31:18.627Z,13.20
2022-12-05T17:33:46.715Z,14.90
2022-12-05T17:36:16.283Z,13.93
2022-12-05T17:38:43.647Z,11.95
2022-12-05T17:41:22.554Z,12.35
2022-12-05T17:44:03.268Z,10.52
2022-12-05T17:46:30.083Z,12.52
2022-12-05T17:48:56.888Z,12.45
2022-12-05T17:51:24.532Z,10.93
2022-12-05T17:54:32.325Z,12.27
2022-12-05T17:57:21.856Z,9.80
2022-12-05T17:59:48.619Z,9.30
2022-12-05T18:02:17.545Z,8.80
2022-12-05T18:04:47.590Z,9.63
2022-12-05T18:07:15.431Z,8.73
2022-12-05T18:09:52.512Z,9.52
2022-12-05T18:12:19.296Z,8.13
2022-12-05T18:14:46.003Z,7.97
2022-12-05T18:17:14.560Z,10.07
2022-12-05T18:19:41.378Z,10.27
2022-12-05T18:22:08.088Z,11.25
2022-12-05T18:24:38.500Z,10.98
2022-12-05T18:27:05.480Z,11.95
2022-12-05T18:29:32.294Z,11.07
2022-12-05T18:31:59.042Z,9.90
2022-12-05T18:34:26.024Z,11.60
2022-12-05T18:36:52.769Z,9.85
2022-12-05T18:39:19.686Z,10.02
2022-12-05T18:41:46.329Z,11.00
2022-12-05T18:44:13.165Z,10.73
2022-12-05T18:46:40.081Z,11.88
2022-12-05T18:49:09.382Z,11.48
2022-12-05T18:51:36.045Z,11.23
2022-12-05T18:54:08.373Z,11.05
2022-12-05T18:56:36.198Z,10.77
2022-12-05T18:59:05.553Z,10.13
2022-12-05T19:01:36.184Z,10.10
2022-12-05T19:04:04.591Z,10.13
2022-12-05T19:06:33.519Z,11.10
2022-12-05T19:09:04.113Z,11.77
2022-12-05T19:11:31.184Z,13.25
2022-12-05T19:14:00.789Z,13.10
2022-12-05T19:16:31.935Z,14.07
2022-12-05T19:19:01.197Z,13.65
2022-12-05T19:21:32.427Z,12.52
2022-12-05T19:23:59.294Z,12.55
2022-12-05T19:26:29.258Z,14.73
2022-12-05T19:28:56.807Z,14.07
2022-12-05T19:31:37.370Z,15.27
2022-12-05T19:34:05.885Z,26.13
2022-12-05T19:37:29.379Z,20.02
2022-12-05T19:39:56.151Z,16.13
2022-12-05T19:42:22.888Z,12.85
2022-12-05T19:44:49.530Z,12.40
2022-12-05T19:47:16.147Z,11.15
2022-12-05T19:49:42.755Z,10.73
2022-12-05T19:52:09.410Z,13.23
2022-12-05T19:54:36.013Z,9.65
2022-12-05T19:57:02.593Z,9.98
2022-12-05T19:59:29.252Z,8.80
2022-12-05T20:01:55.953Z,8.10
2022-12-05T20:04:22.602Z,8.70
2022-12-05T20:06:50.566Z,8.23
2022-12-05T20:09:20.018Z,9.35
2022-12-05T20:11:54.649Z,10.88
2022-12-05T20:14:25.100Z,9.57
2022-12-05T20:16:56.737Z,10.02
2022-12-05T20:19:23.725Z,9.50
2022-12-05T20:21:50.406Z,9.40
2022-12-05T20:24:16.994Z,8.73
2022-12-05T20:26:44.799Z,8.30
2022-12-05T20:29:11.878Z,9.15
2022-12-05T20:31:40.816Z,8.20
2022-12-05T20:34:09.417Z,8.00
2022-12-05T20:36:38.167Z,9.05
2022-12-05T20:39:15.349Z,7.53
2022-12-05T20:41:42.091Z,8.18
2022-12-05T20:44:08.987Z,7.25
2022-12-05T20:46:36.914Z,6.95
2022-12-05T20:49:03.832Z,6.82
2022-12-05T20:51:33.020Z,7.90
2022-12-05T20:54:02.119Z,8.25
2022-12-05T20:56:31.882Z,9.35
2022-12-05T20:59:01.069Z,9.93
2022-12-05T21:01:30.133Z,8.35
2022-12-05T21:03:57.942Z,8.43
2022-12-05T21:06:24.465Z,9.05
2022-12-05T21:08:51.930Z,8.60
2022-12-05T21:11:19.682Z,8.38
2022-12-05T21:13:46.425Z,8.27
2022-12-05T21:16:17.592Z,8.10
2022-12-05T21:18:46.390Z,8.35
2022-12-05T21:21:21.766Z,7.72
2022-12-05T21:23:53.555Z,8.15
2022-12-05T21:26:23.346Z,8.23
2022-12-05T21:28:50.283Z,7.70
2022-12-05T21:31:22.972Z,6.53
2022-12-05T21:33:52.482Z,5.97
2022-12-05T21:36:19.879Z,7.40
2022-12-05T21:38:52.402Z,6.55
2022-12-05T21:41:22.323Z,5.63
2022-12-05T21:43:54.048Z,6.47
2022-12-05T21:46:22.251Z,6.55
2022-12-05T21:48:48.850Z,7.68
2022-12-05T21:51:15.722Z,6.78
2022-12-05T21:53:42.397Z,7.75
2022-12-05T21:56:11.958Z,8.63
2022-12-05T21:58:42.306Z,7.63
2022-12-05T22:01:10.802Z,7.60
2022-12-05T22:03:37.890Z,7.20
2022-12-05T22:06:10.514Z,7.25
2022-12-05T22:08:38.488Z,6.90
2022-12-05T22:11:05.061Z,6.45
2022-12-05T22:13:32.429Z,6.50
2022-12-05T22:15:59.689Z,6.40
2022-12-05T22:18:27.850Z,6.00
2022-12-05T22:20:57.608Z,6.18
2022-12-05T22:23:25.123Z,6.40
2022-12-05T22:26:14.709Z,6.78
2022-12-05T22:28:41.606Z,6.93
2022-12-05T22:31:10.949Z,7.00
2022-12-05T22:33:38.718Z,6.85
2022-12-05T22:36:10.178Z,7.60
2022-12-05T22:38:39.627Z,6.78
2022-12-05T22:41:09.256Z,6.97
2022-12-05T22:43:37.805Z,6.88
2022-12-05T22:46:12.879Z,6.90
2022-12-05T22:48:39.828Z,7.68
2022-12-05T22:51:08.214Z,7.50
2022-12-05T22:53:35.819Z,6.40
2022-12-05T22:56:14.504Z,6.43
2022-12-05T22:58:42.464Z,6.57
2022-12-05T23:01:20.733Z,7.10
2022-12-05T23:03:50.221Z,6.40
2022-12-05T23:06:18.286Z,6.55
2022-12-05T23:08:47.938Z,6.45
2022-12-05T23:11:16.850Z,6.45
2022-12-05T23:13:43.578Z,6.32
2022-12-05T23:16:16.058Z,7.00
2022-12-05T23:18:49.713Z,6.35
2022-12-05T23:21:21.464Z,7.57
2022-12-05T23:23:49.810Z,7.22
2022-12-05T23:26:18.291Z,6.72
2022-12-05T23:28:45.045Z,6.93
2022-12-05T23:31:14.668Z,6.60
2022-12-05T23:33:41.717Z,6.30
2022-12-05T23:36:09.362Z,6.28
2022-12-05T23:38:41.091Z,6.45
2022-12-05T23:41:09.524Z,6.35
2022-12-05T23:43:36.906Z,7.30
2022-12-05T23:46:04.927Z,6.85
2022-12-05T23:48:32.558Z,6.53
2022-12-05T23:51:11.798Z,6.90
2022-12-05T23:53:40.927Z,6.75
2022-12-05T23:56:12.797Z,6.53
2022-12-05T23:58:40.287Z,6.45
